Time;durP1;ratioP1;P1;durP2;ratioP2;P2;SDS_P1;SDS_P2;PMS_P1;PMS_P2;Temp;Humidity;BMP_temperature;BMP_pressure;BME280_temperature;BME280_humidity;BME280_pressure;Samples;Min_cycle;Max_cycle;Signal;HPM_P1;HPM_P2
2023/12/10 00:01:05;;;;;;;;;;;;;;;6.25;83.60;96442.22;4963133;28;19949;-75
2023/12/10 00:03:54;;;;;;;;;;;;;;;6.29;83.62;96457.44;4958800;28;20366;-76
2023/12/10 00:06:42;;;;;;;;;;;;;;;6.31;83.16;96481.38;4973330;28;19926;-75
2023/12/10 00:09:30;;;;;;;;;;;;;;;6.48;82.92;96489.47;4955751;28;19985;-76
2023/12/10 00:12:19;;;;;;;;;;;;;;;6.56;82.59;96498.69;4955922;28;19941;-76
2023/12/10 00:15:08;;;;;;;;;;;;;;;6.61;82.71;96511.22;4959884;28;19933;-75
2023/12/10 00:17:59;;;;;;;;;;;;;;;6.68;82.34;96514.22;4952412;28;19926;-76
2023/12/10 00:20:47;;;;;;;;;;;;;;;6.58;84.36;96520.72;4959772;28;19926;-75
2023/12/10 00:23:36;;;;;;;;;;;;;;;6.72;84.10;96536.75;4951082;28;20016;-76
2023/12/10 00:26:24;;;;;;;;;;;;;;;6.69;85.33;96540.88;4953236;28;20346;-75
2023/12/10 00:33:16;;;;;;;;;;;;;;;6.82;85.03;96556.13;4970702;28;19934;-75
2023/12/10 00:36:05;;;;;;;;;;;;;;;6.95;85.31;96550.84;4956917;28;19926;-75
2023/12/10 00:42:06;;;;;;;;;;;;;;;6.98;85.90;96569.13;4967306;28;20290;-76
2023/12/10 00:44:54;;;;;;;;;;;;;;;7.02;85.95;96581.63;4952020;28;19933;-75
2023/12/10 00:47:42;;;;;;;;;;;;;;;7.09;86.31;96591.97;4967900;28;19934;-76
2023/12/10 00:50:32;;;;;;;;;;;;;;;7.05;86.34;96605.31;4953746;28;19933;-75
2023/12/10 00:53:21;;;;;;;;;;;;;;;7.27;85.35;96609.72;4953092;28;19926;-75
2023/12/10 00:56:10;;;;;;;;;;;;;;;7.42;84.07;96613.03;4955879;28;19941;-75
2023/12/10 00:58:58;;;;;;;;;;;;;;;7.48;83.25;96617.13;4969767;28;19952;-78
2023/12/10 01:01:46;;;;;;;;;;;;;;;7.60;82.30;96630.75;4971332;28;20402;-77
2023/12/10 01:04:36;;;;;;;;;;;;;;;7.68;81.63;96638.06;4956609;28;20503;-78
2023/12/10 01:07:26;;;;;;;;;;;;;;;7.73;79.93;96640.59;4967083;28;19926;-80
2023/12/10 01:10:15;;;;;;;;;;;;;;;7.77;79.79;96662.34;4958328;28;20510;-81
2023/12/10 01:13:03;;;;;;;;;;;;;;;7.80;79.04;96665.19;4967209;28;19932;-80
2023/12/10 01:15:54;;;;;;;;;;;;;;;7.83;78.65;96672.69;4962335;28;20014;-80
2023/12/10 01:19:08;;;;;;;;;;;;;;;7.81;78.57;96687.63;4961800;28;19934;-80
2023/12/10 01:22:46;;;;;;;;;;;;;;;7.91;77.72;96684.56;4970336;28;19976;-81
2023/12/10 01:26:03;;;;;;;;;;;;;;;7.82;77.89;96695.41;4952818;28;19926;-81
2023/12/10 01:28:52;;;;;;;;;;;;;;;7.88;77.09;96706.84;4969732;28;19926;-80
2023/12/10 01:31:40;;;;;;;;;;;;;;;7.88;77.01;96718.47;4956252;28;20302;-80
2023/12/10 01:34:28;;;;;;;;;;;;;;;7.90;76.91;96718.16;4953482;28;20019;-84
2023/12/10 01:37:17;;;;;;;;;;;;;;;7.90;76.27;96728.16;4952313;28;19934;-83
2023/12/10 01:40:08;;;;;;;;;;;;;;;7.95;75.92;96736.13;4973785;28;20856;-82
2023/12/10 01:42:57;;;;;;;;;;;;;;;8.01;74.96;96727.50;4968704;28;19930;-83
2023/12/10 01:45:49;;;;;;;;;;;;;;;8.03;74.34;96733.38;4958987;28;20013;-81
2023/12/10 01:48:37;;;;;;;;;;;;;;;8.01;74.87;96741.03;4958426;28;19941;-82
2023/12/10 01:51:27;;;;;;;;;;;;;;;7.98;74.84;96757.09;4955853;28;19973;-80
2023/12/10 01:54:20;;;;;;;;;;;;;;;7.93;74.63;96757.25;4951659;28;19926;-81
2023/12/10 02:00:07;;;;;;;;;;;;;;;7.91;74.78;96783.84;5078303;28;20370;-75
2023/12/10 02:03:02;;;;;;;;;;;;;;;7.87;74.72;96789.88;5074559;28;19988;-75
2023/12/10 02:05:51;;;;;;;;;;;;;;;7.92;75.06;96798.94;5057037;28;19968;-75
2023/12/10 02:08:40;;;;;;;;;;;;;;;7.95;75.32;96795.59;5065676;28;19928;-75
2023/12/10 02:11:28;;;;;;;;;;;;;;;7.91;75.06;96816.28;5064710;28;19927;-76
2023/12/10 02:14:17;;;;;;;;;;;;;;;7.91;75.54;96822.50;5060773;28;20027;-75
2023/12/10 02:17:08;;;;;;;;;;;;;;;7.93;75.28;96825.66;5061825;28;19932;-75
2023/12/10 02:20:05;;;;;;;;;;;;;;;7.92;75.38;96834.88;5064598;28;20021;-75
2023/12/10 02:22:54;;;;;;;;;;;;;;;7.93;75.18;96835.69;5050764;28;20374;-75
2023/12/10 02:26:07;;;;;;;;;;;;;;;7.94;75.32;96848.91;5063195;28;19939;-75
2023/12/10 02:28:57;;;;;;;;;;;;;;;7.98;75.34;96843.63;5062502;28;19925;-74
2023/12/10 02:31:45;;;;;;;;;;;;;;;8.04;74.79;96848.56;5063323;28;19928;-75
2023/12/10 02:34:33;;;;;;;;;;;;;;;8.00;75.04;96852.25;5047130;28;19921;-74
2023/12/10 02:37:21;;;;;;;;;;;;;;;7.92;75.13;96855.72;5062432;28;20371;-76
2023/12/10 02:40:12;;;;;;;;;;;;;;;7.97;74.84;96867.19;5059016;28;20571;-75
2023/12/10 02:43:00;;;;;;;;;;;;;;;7.98;75.01;96870.69;5049511;28;19921;-76
2023/12/10 02:45:50;;;;;;;;;;;;;;;7.94;75.43;96875.94;5045442;28;20382;-75
2023/12/10 02:48:38;;;;;;;;;;;;;;;7.92;75.23;96867.34;5059814;28;20281;-74
2023/12/10 02:51:56;;;;;;;;;;;;;;;7.86;75.54;96872.13;5073526;28;19928;-75
2023/12/10 02:54:44;;;;;;;;;;;;;;;7.90;75.17;96871.50;5074879;28;19928;-74
2023/12/10 02:57:32;;;;;;;;;;;;;;;7.85;75.46;96877.84;5075120;28;20377;-75
2023/12/10 03:00:47;;;;;;;;;;;;;;;7.90;75.21;96883.09;5043706;28;20205;-74
2023/12/10 03:03:37;;;;;;;;;;;;;;;7.97;74.78;96896.13;5071226;28;20282;-74
2023/12/10 03:06:25;;;;;;;;;;;;;;;8.00;75.00;96887.41;5063626;28;20342;-74
2023/12/10 03:09:14;;;;;;;;;;;;;;;8.04;75.00;96902.69;5039995;28;19920;-74
2023/12/10 03:12:02;;;;;;;;;;;;;;;8.00;74.60;96911.75;5049661;28;19929;-75
2023/12/10 03:15:15;;;;;;;;;;;;;;;8.07;74.50;96929.06;5044319;28;19933;-75
2023/12/10 03:18:07;;;;;;;;;;;;;;;8.04;74.67;96924.31;5048076;28;20309;-75
2023/12/10 03:20:56;;;;;;;;;;;;;;;7.99;74.51;96929.88;5045702;28;19928;-76
2023/12/10 03:23:45;;;;;;;;;;;;;;;8.07;74.29;96936.41;5048699;28;19924;-76
2023/12/10 03:26:33;;;;;;;;;;;;;;;8.10;74.09;96939.28;5038802;28;19921;-76
2023/12/10 03:29:46;;;;;;;;;;;;;;;8.11;73.93;96923.84;5061681;28;20378;-76
2023/12/10 03:33:00;;;;;;;;;;;;;;;8.13;73.72;96935.13;5042677;28;19983;-76
2023/12/10 03:35:49;;;;;;;;;;;;;;;8.08;73.91;96946.88;5047578;28;19963;-75
2023/12/10 03:38:38;;;;;;;;;;;;;;;8.04;73.89;96950.53;5030448;28;19921;-74
2023/12/10 03:41:27;;;;;;;;;;;;;;;7.99;74.18;96961.53;5044347;28;20257;-76
2023/12/10 03:44:15;;;;;;;;;;;;;;;7.96;73.80;96957.56;5047350;28;20027;-76
2023/12/10 03:47:04;;;;;;;;;;;;;;;8.04;73.85;96966.78;5051450;28;20267;-76
2023/12/10 03:49:53;;;;;;;;;;;;;;;7.94;73.77;96970.59;5042120;28;19971;-76
2023/12/10 03:52:42;;;;;;;;;;;;;;;8.01;73.42;96981.75;5042908;28;20011;-76
2023/12/10 03:55:31;;;;;;;;;;;;;;;7.98;73.28;96984.28;5043408;28;19983;-77
2023/12/10 03:58:19;;;;;;;;;;;;;;;7.94;73.80;96967.09;5049741;28;20362;-76
2023/12/10 04:01:09;;;;;;;;;;;;;;;7.98;73.86;96978.88;5056599;28;19924;-76
2023/12/10 04:03:57;;;;;;;;;;;;;;;7.92;74.62;96977.44;5050780;28;19925;-76
2023/12/10 04:06:45;;;;;;;;;;;;;;;7.84;75.40;96990.63;5047669;28;19920;-76
2023/12/10 04:09:33;;;;;;;;;;;;;;;7.81;75.31;96991.25;5053534;28;19921;-76
2023/12/10 04:12:25;;;;;;;;;;;;;;;7.87;75.53;96989.97;5045415;28;19928;-76
2023/12/10 04:15:13;;;;;;;;;;;;;;;7.90;75.27;96993.97;5049026;28;19921;-76
2023/12/10 04:18:01;;;;;;;;;;;;;;;7.77;75.61;97000.31;5059637;28;19927;-76
2023/12/10 04:24:03;;;;;;;;;;;;;;;7.80;75.29;97016.72;5047463;28;20133;-76
2023/12/10 04:26:51;;;;;;;;;;;;;;;7.67;75.67;97017.66;5058132;28;20424;-76
2023/12/10 04:29:42;;;;;;;;;;;;;;;7.77;75.33;97035.44;5062169;28;19920;-76
2023/12/10 04:32:31;;;;;;;;;;;;;;;7.78;75.06;97032.47;5031605;28;19948;-76
2023/12/10 04:38:39;;;;;;;;;;;;;;;7.83;74.57;97036.94;5037737;28;19929;-77
2023/12/10 04:41:27;;;;;;;;;;;;;;;7.85;74.46;97040.91;5048521;28;20286;-76
2023/12/10 04:44:16;;;;;;;;;;;;;;;7.84;73.73;97039.31;5050947;28;19979;-76
2023/12/10 04:47:06;;;;;;;;;;;;;;;7.90;73.86;97041.88;5030097;28;20015;-77
2023/12/10 04:49:55;;;;;;;;;;;;;;;7.88;74.06;97053.81;5044418;28;19927;-76
2023/12/10 04:52:44;;;;;;;;;;;;;;;7.84;74.03;97042.00;5032317;28;19920;-76
2023/12/10 04:55:32;;;;;;;;;;;;;;;7.88;73.91;97061.91;5051034;28;19921;-76
2023/12/10 04:58:21;;;;;;;;;;;;;;;7.79;73.41;97052.19;5046259;28;19921;-76
2023/12/10 05:01:10;;;;;;;;;;;;;;;7.80;73.64;97062.66;5035060;28;19924;-76
2023/12/10 05:04:00;;;;;;;;;;;;;;;7.80;72.06;97064.59;5061512;28;20358;-76
2023/12/10 05:06:51;;;;;;;;;;;;;;;7.86;71.79;97061.41;5050605;28;19928;-76
2023/12/10 05:09:40;;;;;;;;;;;;;;;7.83;71.46;97067.47;5048528;28;19925;-76
2023/12/10 05:12:29;;;;;;;;;;;;;;;7.87;70.16;97081.13;5045785;28;19921;-76
2023/12/10 05:15:17;;;;;;;;;;;;;;;7.89;69.67;97084.34;5028253;28;19921;-74
2023/12/10 05:18:06;;;;;;;;;;;;;;;8.08;69.09;97092.19;5059591;28;19928;-75
2023/12/10 05:20:55;;;;;;;;;;;;;;;8.01;68.91;97086.44;5034944;28;19928;-76
2023/12/10 05:23:44;;;;;;;;;;;;;;;8.01;68.21;97108.88;5045506;28;19921;-75
2023/12/10 05:26:32;;;;;;;;;;;;;;;7.91;69.08;97109.16;5031100;28;19927;-76
2023/12/10 05:32:33;;;;;;;;;;;;;;;8.09;68.68;97118.91;5025507;28;19971;-76
2023/12/10 05:35:46;;;;;;;;;;;;;;;8.08;68.62;97136.25;5026332;28;20382;-76
2023/12/10 05:38:36;;;;;;;;;;;;;;;7.97;68.58;97140.34;5045060;28;20020;-74
2023/12/10 05:41:24;;;;;;;;;;;;;;;8.01;68.89;97135.13;5047829;28;20278;-74
2023/12/10 05:44:12;;;;;;;;;;;;;;;7.96;69.04;97137.97;5046953;28;19933;-75
2023/12/10 05:47:02;;;;;;;;;;;;;;;8.05;69.22;97152.34;5040219;28;19920;-75
2023/12/10 05:49:50;;;;;;;;;;;;;;;8.00;68.93;97157.88;5039091;28;20192;-76
2023/12/10 05:52:39;;;;;;;;;;;;;;;7.85;68.80;97149.06;5043674;28;19921;-76
2023/12/10 05:55:28;;;;;;;;;;;;;;;7.99;69.24;97158.97;5047549;28;19921;-76
2023/12/10 05:58:20;;;;;;;;;;;;;;;7.81;69.52;97158.09;5045998;28;19929;-76
2023/12/10 06:01:08;;;;;;;;;;;;;;;7.90;68.87;97169.78;5048848;28;19920;-76
2023/12/10 06:03:57;;;;;;;;;;;;;;;7.73;69.13;97167.78;5055893;28;19944;-76
2023/12/10 06:06:46;;;;;;;;;;;;;;;7.70;69.57;97179.22;5030252;28;19928;-76
2023/12/10 06:09:34;;;;;;;;;;;;;;;7.66;69.17;97177.44;5043936;28;19956;-76
2023/12/10 06:12:25;;;;;;;;;;;;;;;7.66;69.84;97178.22;5043430;28;19974;-76
2023/12/10 06:15:13;;;;;;;;;;;;;;;7.67;69.57;97185.25;5047666;28;19921;-76
2023/12/10 06:18:02;;;;;;;;;;;;;;;7.60;70.22;97179.47;5049758;28;19921;-76
2023/12/10 06:20:50;;;;;;;;;;;;;;;7.49;70.24;97197.06;5043391;28;19928;-76
2023/12/10 06:23:39;;;;;;;;;;;;;;;7.67;70.19;97196.06;5035277;28;19932;-77
2023/12/10 06:26:27;;;;;;;;;;;;;;;7.65;70.55;97195.56;5031278;28;19928;-76
2023/12/10 06:29:40;;;;;;;;;;;;;;;7.60;70.38;97201.91;5039470;28;20318;-76
2023/12/10 06:32:29;;;;;;;;;;;;;;;7.81;70.30;97218.41;5042102;28;20019;-76
2023/12/10 06:35:18;;;;;;;;;;;;;;;7.71;70.60;97218.66;5046690;28;19972;-76
2023/12/10 06:38:31;;;;;;;;;;;;;;;7.90;69.56;97220.38;5047525;28;20019;-74
2023/12/10 06:41:19;;;;;;;;;;;;;;;7.82;70.10;97227.31;5041603;28;20366;-75
2023/12/10 06:44:09;;;;;;;;;;;;;;;7.79;70.54;97244.97;5039463;28;19929;-75
2023/12/10 06:46:57;;;;;;;;;;;;;;;7.88;69.75;97235.00;5051179;28;19944;-75
2023/12/10 06:49:47;;;;;;;;;;;;;;;7.73;70.32;97231.88;5051012;28;20358;-75
2023/12/10 06:52:35;;;;;;;;;;;;;;;7.72;70.49;97231.06;5047063;28;19929;-76
2023/12/10 06:55:24;;;;;;;;;;;;;;;7.73;69.80;97221.88;5050065;28;19959;-75
2023/12/10 07:01:25;;;;;;;;;;;;;;;7.58;70.75;97246.56;5038819;28;19921;-75
2023/12/10 07:04:16;;;;;;;;;;;;;;;7.59;71.08;97251.66;5032615;28;19927;-76
2023/12/10 07:07:06;;;;;;;;;;;;;;;7.51;70.88;97246.19;5043665;28;20007;-75
2023/12/10 07:09:55;;;;;;;;;;;;;;;7.56;70.90;97254.16;5057744;28;19978;-75
2023/12/10 07:15:56;;;;;;;;;;;;;;;7.61;70.70;97254.84;5042778;28;20418;-75
2023/12/10 07:18:44;;;;;;;;;;;;;;;7.50;71.09;97266.22;5054886;28;19928;-76
2023/12/10 07:21:33;;;;;;;;;;;;;;;7.47;70.64;97277.66;5047292;28;20009;-75
2023/12/10 07:24:22;;;;;;;;;;;;;;;7.48;70.97;97277.34;5051078;28;19924;-75
2023/12/10 07:27:11;;;;;;;;;;;;;;;7.51;70.44;97279.44;5047365;28;19971;-74
2023/12/10 07:29:59;;;;;;;;;;;;;;;7.50;70.65;97293.25;5050697;28;20039;-75
2023/12/10 07:32:48;;;;;;;;;;;;;;;7.42;70.46;97312.91;5047693;28;20039;-75
2023/12/10 07:36:02;;;;;;;;;;;;;;;7.42;70.37;97307.50;5049532;28;20274;-75
2023/12/10 07:39:15;;;;;;;;;;;;;;;7.43;70.40;97303.69;5044687;28;19925;-76
2023/12/10 07:42:05;;;;;;;;;;;;;;;7.55;70.07;97309.34;5041620;28;19921;-75
2023/12/10 07:44:53;;;;;;;;;;;;;;;7.65;69.72;97309.09;5044793;28;20007;-75
2023/12/10 07:47:42;;;;;;;;;;;;;;;7.68;69.39;97311.22;5050105;28;20417;-73
2023/12/10 07:50:31;;;;;;;;;;;;;;;7.72;69.57;97322.19;5047216;28;19920;-73
2023/12/10 07:53:19;;;;;;;;;;;;;;;7.73;69.40;97321.09;5044652;28;19928;-73
2023/12/10 07:56:09;;;;;;;;;;;;;;;7.82;69.22;97322.75;5044839;28;19928;-73
2023/12/10 07:59:02;;;;;;;;;;;;;;;7.76;69.22;97329.38;5047135;28;19928;-75
2023/12/10 08:01:51;;;;;;;;;;;;;;;7.83;68.51;97335.19;5043277;28;19944;-76
2023/12/10 08:04:39;;;;;;;;;;;;;;;7.86;68.03;97345.38;5049531;28;19925;-74
2023/12/10 08:13:57;;;;;;;;;;;;;;;8.13;67.30;97340.94;5042544;28;19933;-73
2023/12/10 08:16:46;;;;;;;;;;;;;;;8.16;66.02;97347.66;5042945;28;20458;-74
2023/12/10 08:23:36;;;;;;;;;;;;;;;8.07;65.72;97366.53;5053187;28;19920;-75
2023/12/10 08:26:28;;;;;;;;;;;;;;;8.13;65.90;97376.09;5055065;28;19951;-74
2023/12/10 08:32:29;;;;;;;;;;;;;;;8.19;65.28;97379.50;5044249;28;20362;-74
2023/12/10 08:35:45;;;;;;;;;;;;;;;8.19;65.36;97380.28;5046726;28;19933;-75
2023/12/10 08:38:38;;;;;;;;;;;;;;;8.15;65.62;97395.56;5044619;28;19928;-75
2023/12/10 08:41:30;;;;;;;;;;;;;;;8.22;65.66;97389.72;5042813;28;19924;-75
2023/12/10 08:44:18;;;;;;;;;;;;;;;8.12;65.07;97396.16;5050276;28;19920;-75
2023/12/10 08:47:06;;;;;;;;;;;;;;;8.17;65.51;97404.16;5050959;28;20551;-74
2023/12/10 08:49:56;;;;;;;;;;;;;;;8.10;65.23;97392.97;5045632;28;20352;-73
2023/12/10 08:55:57;;;;;;;;;;;;;;;8.29;65.20;97401.69;5047440;28;19924;-74
2023/12/10 08:58:45;;;;;;;;;;;;;;;8.29;64.44;97407.09;5044937;28;20047;-74
2023/12/10 09:01:33;;;;;;;;;;;;;;;8.22;64.80;97404.03;5050493;28;19921;-74
2023/12/10 09:04:22;;;;;;;;;;;;;;;8.23;63.96;97415.66;5043249;28;19956;-74
2023/12/10 09:07:11;;;;;;;;;;;;;;;8.27;63.97;97417.44;5049491;28;19927;-74
2023/12/10 09:10:00;;;;;;;;;;;;;;;8.35;64.16;97427.50;5050530;28;21251;-74
2023/12/10 09:16:09;;;;;;;;;;;;;;;8.44;64.07;97426.81;5041773;28;20382;-73
2023/12/10 09:19:24;;;;;;;;;;;;;;;8.50;63.75;97428.28;5045362;28;19924;-74
2023/12/10 09:23:03;;;;;;;;;;;;;;;8.72;63.51;97447.19;5049188;28;20337;-73
2023/12/10 09:25:58;;;;;;;;;;;;;;;8.66;63.29;97429.50;5046060;28;19921;-73
2023/12/10 09:28:46;;;;;;;;;;;;;;;8.84;63.29;97446.63;5047182;28;20267;-74
2023/12/10 09:31:36;;;;;;;;;;;;;;;8.82;62.50;97446.94;5043115;28;19967;-74
2023/12/10 09:34:25;;;;;;;;;;;;;;;8.82;62.16;97446.94;5035301;28;19921;-74
2023/12/10 09:37:14;;;;;;;;;;;;;;;8.80;62.91;97448.38;5041429;28;19925;-74
2023/12/10 09:40:04;;;;;;;;;;;;;;;8.79;62.28;97457.59;5044994;28;19921;-74
2023/12/10 09:43:19;;;;;;;;;;;;;;;8.78;62.10;97443.25;5036754;28;19921;-74
2023/12/10 09:46:07;;;;;;;;;;;;;;;8.83;62.99;97458.56;5038226;28;19967;-74
2023/12/10 09:49:21;;;;;;;;;;;;;;;8.92;62.55;97445.88;5045107;28;19927;-74
2023/12/10 09:52:10;;;;;;;;;;;;;;;9.12;61.56;97460.78;5047541;28;19985;-74
2023/12/10 09:54:59;;;;;;;;;;;;;;;9.21;61.18;97461.59;5041929;28;19927;-74
2023/12/10 09:58:14;;;;;;;;;;;;;;;9.31;61.42;97458.63;5043791;28;20012;-74
2023/12/10 10:01:06;;;;;;;;;;;;;;;9.19;60.42;97451.09;5045544;28;19921;-74
2023/12/10 10:03:55;;;;;;;;;;;;;;;8.99;60.44;97456.25;5045451;28;19951;-74
2023/12/10 10:06:43;;;;;;;;;;;;;;;8.91;61.46;97438.88;5047169;28;19947;-74
2023/12/10 10:09:33;;;;;;;;;;;;;;;8.91;61.35;97434.25;5045933;28;19920;-74
2023/12/10 10:12:28;;;;;;;;;;;;;;;9.01;61.23;97429.66;5040737;28;20259;-74
2023/12/10 10:15:21;;;;;;;;;;;;;;;9.19;60.85;97439.44;5044600;28;19925;-74
2023/12/10 10:18:11;;;;;;;;;;;;;;;9.18;60.42;97451.41;5047254;28;19928;-74
2023/12/10 10:21:25;;;;;;;;;;;;;;;9.29;59.66;97444.59;5048876;28;19990;-74
2023/12/10 10:24:13;;;;;;;;;;;;;;;9.32;59.63;97459.41;5042404;28;19931;-74
2023/12/10 10:27:05;;;;;;;;;;;;;;;9.45;59.38;97458.50;5050896;28;20509;-74
2023/12/10 10:29:54;;;;;;;;;;;;;;;9.57;58.93;97468.75;5042638;28;19921;-74
2023/12/10 10:32:43;;;;;;;;;;;;;;;9.54;59.33;97483.75;5043133;28;19927;-74
2023/12/10 10:35:59;;;;;;;;;;;;;;;9.59;59.34;97483.59;5049278;28;19920;-74
2023/12/10 10:39:12;;;;;;;;;;;;;;;9.61;59.90;97467.00;5046879;28;20310;-74
2023/12/10 10:42:04;;;;;;;;;;;;;;;9.73;58.41;97466.41;5049150;28;20623;-74
2023/12/10 10:44:55;;;;;;;;;;;;;;;9.59;58.43;97480.09;5048057;28;20427;-74
2023/12/10 10:47:44;;;;;;;;;;;;;;;9.52;58.96;97458.84;5025800;28;19928;-74
2023/12/10 10:50:33;;;;;;;;;;;;;;;9.53;58.30;97467.78;5050078;28;20066;-74
2023/12/10 10:53:21;;;;;;;;;;;;;;;9.44;59.26;97479.41;5049320;28;20066;-74
2023/12/10 10:56:10;;;;;;;;;;;;;;;9.30;58.69;97494.97;5050792;28;20441;-74
2023/12/10 10:59:00;;;;;;;;;;;;;;;9.24;59.07;97496.22;5047626;28;19921;-74
2023/12/10 11:01:50;;;;;;;;;;;;;;;9.41;59.95;97474.59;5041964;28;19928;-74
2023/12/10 11:04:40;;;;;;;;;;;;;;;9.52;58.94;97469.69;5045504;28;19921;-74
2023/12/10 11:07:28;;;;;;;;;;;;;;;9.25;57.92;97484.28;5045615;28;19928;-73
2023/12/10 11:10:17;;;;;;;;;;;;;;;9.20;59.15;97489.81;5047735;28;19921;-73
2023/12/10 11:16:21;;;;;;;;;;;;;;;9.38;59.17;97488.81;5045196;28;19963;-73
2023/12/10 11:19:35;;;;;;;;;;;;;;;9.43;58.69;97477.81;5048792;28;19960;-73
2023/12/10 11:23:14;;;;;;;;;;;;;;;9.51;58.09;97507.97;5045787;28;20286;-73
2023/12/10 11:26:06;;;;;;;;;;;;;;;9.66;57.95;97500.22;5047115;28;20325;-72
2023/12/10 11:28:57;;;;;;;;;;;;;;;9.78;57.82;97499.59;5046297;28;20606;-74
2023/12/10 11:31:47;;;;;;;;;;;;;;;9.88;57.64;97493.06;5048290;28;19921;-74
2023/12/10 11:34:35;;;;;;;;;;;;;;;9.76;57.93;97523.53;5045636;28;19931;-74
2023/12/10 11:37:24;;;;;;;;;;;;;;;9.76;57.58;97509.97;5042975;28;19989;-73
2023/12/10 11:40:14;;;;;;;;;;;;;;;9.79;57.82;97509.31;5049477;28;19927;-74
2023/12/10 11:43:04;;;;;;;;;;;;;;;9.86;57.15;97493.41;5051225;28;19921;-73
2023/12/10 11:45:52;;;;;;;;;;;;;;;9.69;58.25;97493.34;5049730;28;19928;-74
2023/12/10 11:51:53;;;;;;;;;;;;;;;9.77;58.00;97484.44;5042918;28;19967;-74
2023/12/10 11:54:41;;;;;;;;;;;;;;;9.75;57.68;97499.41;5051226;28;20111;-72
2023/12/10 11:57:30;;;;;;;;;;;;;;;9.84;57.28;97486.69;5050768;28;19973;-72
2023/12/10 12:00:56;;;;;;;;;;;;;;;9.74;57.38;97486.97;5046501;28;19975;-72
2023/12/10 12:06:57;;;;;;;;;;;;;;;9.60;57.76;97476.25;5045252;28;20000;-73
2023/12/10 12:09:48;;;;;;;;;;;;;;;9.66;57.52;97480.44;5043668;28;20262;-73
2023/12/10 12:15:54;;;;;;;;;;;;;;;9.83;57.54;97494.03;5037028;28;20389;-73
2023/12/10 12:19:08;;;;;;;;;;;;;;;9.77;56.39;97487.16;5046132;28;19921;-73
2023/12/10 12:22:21;;;;;;;;;;;;;;;9.69;57.61;97491.44;5044611;28;19921;-72
2023/12/10 12:28:49;;;;;;;;;;;;;;;9.80;57.68;97502.81;5046171;28;19952;-72
2023/12/10 12:31:40;;;;;;;;;;;;;;;9.79;57.83;97503.91;5049761;28;19921;-73
2023/12/10 12:34:44;;;;;;;;;;;;;;;9.72;58.06;97492.72;5050162;28;19920;-72
2023/12/10 12:37:33;;;;;;;;;;;;;;;9.78;58.36;97486.03;5048670;28;19983;-72
2023/12/10 12:43:34;;;;;;;;;;;;;;;9.59;59.17;97488.25;5047106;28;20346;-74
2023/12/10 12:46:25;;;;;;;;;;;;;;;9.57;59.06;97498.59;5047207;28;20301;-73
2023/12/10 12:49:13;;;;;;;;;;;;;;;9.43;59.67;97504.13;5045640;28;20024;-73
2023/12/10 12:52:02;;;;;;;;;;;;;;;9.45;59.29;97504.59;5063716;28;19944;-73
2023/12/10 12:54:51;;;;;;;;;;;;;;;9.47;59.37;97504.28;5035789;28;19967;-73
2023/12/10 12:58:05;;;;;;;;;;;;;;;9.60;59.18;97496.06;5043346;28;20062;-73
2023/12/10 13:00:53;;;;;;;;;;;;;;;9.65;58.61;97498.63;5046143;28;19933;-73
2023/12/10 13:03:43;;;;;;;;;;;;;;;9.74;58.93;97498.63;5027957;28;19924;-73
2023/12/10 13:06:31;;;;;;;;;;;;;;;9.77;59.16;97503.44;5057479;28;19925;-73
2023/12/10 13:12:32;;;;;;;;;;;;;;;9.83;58.79;97499.44;5048924;28;19971;-73
2023/12/10 13:15:46;;;;;;;;;;;;;;;9.91;58.80;97497.88;5045440;28;19965;-74
2023/12/10 13:18:34;;;;;;;;;;;;;;;9.95;59.30;97488.75;5056554;28;19920;-74
2023/12/10 13:21:24;;;;;;;;;;;;;;;9.99;58.80;97499.78;5026757;28;19921;-73
2023/12/10 13:24:13;;;;;;;;;;;;;;;9.97;59.10;97507.47;5048444;28;19937;-74
2023/12/10 13:27:02;;;;;;;;;;;;;;;10.04;58.45;97501.56;5045931;28;20077;-74
2023/12/10 13:29:50;;;;;;;;;;;;;;;9.95;59.33;97509.69;5046106;28;19924;-74
2023/12/10 13:32:38;;;;;;;;;;;;;;;9.85;59.16;97502.63;5047866;28;20397;-73
2023/12/10 13:38:40;;;;;;;;;;;;;;;9.87;58.97;97505.84;5050061;28;19921;-74
2023/12/10 13:41:28;;;;;;;;;;;;;;;9.86;59.73;97512.41;5046578;28;19920;-74
2023/12/10 13:44:16;;;;;;;;;;;;;;;9.76;59.53;97517.31;5044457;28;19976;-73
2023/12/10 13:47:12;;;;;;;;;;;;;;;9.67;59.57;97525.41;5044806;28;19951;-73
2023/12/10 13:50:02;;;;;;;;;;;;;;;9.63;59.89;97519.00;5029279;28;19921;-73
2023/12/10 13:52:52;;;;;;;;;;;;;;;9.62;60.25;97517.41;5048133;28;20011;-74
2023/12/10 13:55:41;;;;;;;;;;;;;;;9.48;60.63;97516.72;5042218;28;20020;-73
2023/12/10 13:58:34;;;;;;;;;;;;;;;9.45;60.65;97529.81;5049469;28;20267;-73
2023/12/10 14:01:24;;;;;;;;;;;;;;;9.50;61.05;97522.66;5047250;28;19955;-73
2023/12/10 14:04:13;;;;;;;;;;;;;;;9.30;61.70;97521.28;5046727;28;19924;-73
2023/12/10 14:07:02;;;;;;;;;;;;;;;9.40;61.68;97527.22;5028486;28;20016;-72
2023/12/10 14:09:50;;;;;;;;;;;;;;;9.34;62.05;97525.78;5032210;28;19921;-73
2023/12/10 14:15:55;;;;;;;;;;;;;;;9.49;61.96;97519.16;5046794;28;19966;-73
2023/12/10 14:18:44;;;;;;;;;;;;;;;9.45;61.91;97524.38;5044481;28;19928;-74
2023/12/10 14:21:33;;;;;;;;;;;;;;;9.41;62.06;97517.97;5029290;28;19931;-74
2023/12/10 14:24:22;;;;;;;;;;;;;;;9.53;61.79;97525.50;5049780;28;19929;-73
2023/12/10 14:27:10;;;;;;;;;;;;;;;9.43;62.29;97525.81;5047233;28;20289;-73
2023/12/10 14:30:01;;;;;;;;;;;;;;;9.54;61.85;97523.63;5046844;28;20003;-74
2023/12/10 14:32:49;;;;;;;;;;;;;;;9.42;62.38;97533.13;5045384;28;19920;-74
2023/12/10 14:36:03;;;;;;;;;;;;;;;9.18;63.15;97524.59;5045820;28;19968;-74
2023/12/10 14:39:16;;;;;;;;;;;;;;;9.32;63.21;97530.72;5054984;28;19932;-74
2023/12/10 14:42:05;;;;;;;;;;;;;;;9.25;62.64;97530.34;5051665;28;20007;-74
2023/12/10 14:44:53;;;;;;;;;;;;;;;9.38;63.11;97540.31;5048189;28;19936;-73
2023/12/10 14:48:06;;;;;;;;;;;;;;;9.18;63.21;97538.13;5038590;28;19939;-74
2023/12/10 14:50:56;;;;;;;;;;;;;;;9.29;63.32;97542.19;5056533;28;19920;-74
2023/12/10 14:53:44;;;;;;;;;;;;;;;9.13;63.57;97546.41;5047817;28;20390;-74
2023/12/10 14:56:32;;;;;;;;;;;;;;;9.16;63.77;97540.34;5043583;28;19921;-74
2023/12/10 14:59:21;;;;;;;;;;;;;;;9.12;64.13;97517.69;5045432;28;19924;-74
2023/12/10 15:51:52;;;;;;;;;;;;;;;8.91;65.10;97496.56;4989796;28;19926;-89
2023/12/10 15:54:40;;;;;;;;;;;;;;;8.97;64.96;97491.00;4987310;28;19933;-87
2023/12/10 15:57:33;;;;;;;;;;;;;;;8.97;64.90;97491.00;4992337;28;20008;-88
2023/12/10 16:00:21;;;;;;;;;;;;;;;9.03;64.54;97487.84;4985397;28;19941;-87
2023/12/10 16:03:10;;;;;;;;;;;;;;;9.02;64.44;97480.03;4993140;28;20463;-87
2023/12/10 16:10:10;;;;;;;;;;;;;;;8.91;64.16;97484.91;5381588;23;19973;-77
2023/12/10 16:12:59;;;;;;;;;;;;;;;8.92;64.37;97471.06;5006923;28;19926;-76
2023/12/10 16:15:47;;;;;;;;;;;;;;;8.81;64.20;97474.34;5008761;28;19925;-83
2023/12/10 16:18:35;;;;;;;;;;;;;;;9.15;63.22;97476.41;5001515;28;20394;-76
2023/12/10 16:21:24;;;;;;;;;;;;;;;9.15;63.07;97481.84;5007129;28;20395;-77
2023/12/10 16:24:12;;;;;;;;;;;;;;;9.43;62.63;97480.53;5006596;28;19940;-76
2023/12/10 16:27:02;;;;;;;;;;;;;;;9.43;62.17;97477.81;5005544;28;20380;-74
2023/12/10 16:29:50;;;;;;;;;;;;;;;9.44;61.97;97482.13;5010630;28;19925;-76
2023/12/10 16:32:38;;;;;;;;;;;;;;;9.58;61.49;97478.47;5008920;28;19933;-75
2023/12/10 16:35:27;;;;;;;;;;;;;;;9.40;62.02;97466.78;5008537;28;19926;-78
2023/12/10 16:38:15;;;;;;;;;;;;;;;9.42;61.92;97461.84;5004926;28;19926;-76
2023/12/10 16:41:04;;;;;;;;;;;;;;;9.47;61.73;97460.91;5008883;28;19926;-80
2023/12/10 16:43:54;;;;;;;;;;;;;;;9.62;61.18;97452.34;5007526;28;19936;-79
2023/12/10 16:46:42;;;;;;;;;;;;;;;9.44;61.39;97438.75;5004198;28;19933;-77
2023/12/10 16:49:30;;;;;;;;;;;;;;;9.50;61.85;97455.66;5003278;28;19965;-78
2023/12/10 16:52:19;;;;;;;;;;;;;;;9.51;61.01;97451.81;5004268;28;19933;-85
2023/12/10 16:55:08;;;;;;;;;;;;;;;9.69;60.71;97464.31;5004928;28;19940;-76
2023/12/10 16:57:59;;;;;;;;;;;;;;;9.45;60.81;97453.88;5002609;28;20090;-75
2023/12/10 17:00:49;;;;;;;;;;;;;;;9.61;60.57;97453.44;5007608;28;19932;-74
2023/12/10 17:03:39;;;;;;;;;;;;;;;9.69;60.57;97447.22;5008570;28;19932;-75
2023/12/10 17:06:28;;;;;;;;;;;;;;;9.73;60.19;97455.53;5008024;28;20315;-75
2023/12/10 17:09:17;;;;;;;;;;;;;;;9.72;60.33;97457.47;5008186;28;20011;-75
2023/12/10 17:12:05;;;;;;;;;;;;;;;9.72;60.44;97441.19;4996614;28;20012;-77
2023/12/10 17:14:54;;;;;;;;;;;;;;;9.40;60.90;97429.63;5003813;28;19957;-78
2023/12/10 17:17:43;;;;;;;;;;;;;;;9.54;61.09;97434.16;5001763;28;19930;-88